sensor_id;sensor_type;location;lat;lon;timestamp;pressure;altitude;pressure_sealevel;temperature;humidity
75013;BME280;63567;49.956;20.130;2023-04-01T00:00:48;95401.72;;;9.53;61.86
75013;BME280;63567;49.956;20.130;2023-04-01T00:03:13;95392.81;;;9.54;62.51
75013;BME280;63567;49.956;20.130;2023-04-01T00:05:39;95392.53;;;9.44;62.56
75013;BME280;63567;49.956;20.130;2023-04-01T00:08:04;95391.94;;;9.42;62.75
75013;BME280;63567;49.956;20.130;2023-04-01T00:10:30;95384.66;;;9.44;62.90
75013;BME280;63567;49.956;20.130;2023-04-01T00:12:55;95385.53;;;9.38;63.18
75013;BME280;63567;49.956;20.130;2023-04-01T00:15:21;95386.69;;;9.42;63.29
75013;BME280;63567;49.956;20.130;2023-04-01T00:17:46;95385.91;;;9.41;63.28
75013;BME280;63567;49.956;20.130;2023-04-01T00:20:12;95377.19;;;9.41;63.35
75013;BME280;63567;49.956;20.130;2023-04-01T00:22:37;95377.84;;;9.36;64.08
75013;BME280;63567;49.956;20.130;2023-04-01T00:25:04;95379.69;;;9.36;63.92
75013;BME280;63567;49.956;20.130;2023-04-01T00:27:29;95382.78;;;9.33;64.37
75013;BME280;63567;49.956;20.130;2023-04-01T00:29:55;95376.94;;;9.31;64.21
75013;BME280;63567;49.956;20.130;2023-04-01T00:32:20;95372.25;;;9.33;64.67
75013;BME280;63567;49.956;20.130;2023-04-01T00:34:50;95377.00;;;9.24;64.43
75013;BME280;63567;49.956;20.130;2023-04-01T00:37:16;95370.94;;;9.23;64.66
75013;BME280;63567;49.956;20.130;2023-04-01T00:39:41;95370.00;;;9.18;64.98
75013;BME280;63567;49.956;20.130;2023-04-01T00:42:08;95362.34;;;9.16;65.52
75013;BME280;63567;49.956;20.130;2023-04-01T00:44:37;95356.59;;;9.08;65.64
75013;BME280;63567;49.956;20.130;2023-04-01T00:47:02;95367.25;;;8.94;65.80
75013;BME280;63567;49.956;20.130;2023-04-01T00:49:33;95361.03;;;8.89;66.51
75013;BME280;63567;49.956;20.130;2023-04-01T00:52:03;95367.75;;;8.84;66.66
75013;BME280;63567;49.956;20.130;2023-04-01T00:54:30;95369.00;;;8.82;66.74
75013;BME280;63567;49.956;20.130;2023-04-01T00:56:59;95363.22;;;8.73;66.99
75013;BME280;63567;49.956;20.130;2023-04-01T00:59:30;95364.66;;;8.69;67.56
75013;BME280;63567;49.956;20.130;2023-04-01T01:01:57;95366.72;;;8.67;67.18
75013;BME280;63567;49.956;20.130;2023-04-01T01:04:24;95363.75;;;8.63;67.98
75013;BME280;63567;49.956;20.130;2023-04-01T01:07:28;95369.19;;;8.62;68.06
75013;BME280;63567;49.956;20.130;2023-04-01T01:15:32;95372.88;;;8.54;68.38
75013;BME280;63567;49.956;20.130;2023-04-01T01:24:07;95377.19;;;8.49;68.63
75013;BME280;63567;49.956;20.130;2023-04-01T01:35:22;95377.41;;;8.47;68.91
75013;BME280;63567;49.956;20.130;2023-04-01T01:37:58;95375.16;;;8.51;69.03
75013;BME280;63567;49.956;20.130;2023-04-01T01:40:26;95385.44;;;8.52;69.04
75013;BME280;63567;49.956;20.130;2023-04-01T01:42:56;95373.72;;;8.55;69.03
75013;BME280;63567;49.956;20.130;2023-04-01T01:45:25;95385.38;;;8.59;68.95
75013;BME280;63567;49.956;20.130;2023-04-01T01:47:51;95381.53;;;8.61;68.71
75013;BME280;63567;49.956;20.130;2023-04-01T01:50:18;95382.53;;;8.60;68.53
75013;BME280;63567;49.956;20.130;2023-04-01T01:52:44;95380.06;;;8.66;68.08
75013;BME280;63567;49.956;20.130;2023-04-01T01:57:59;95388.28;;;8.69;68.83
75013;BME280;63567;49.956;20.130;2023-04-01T02:00:26;95386.72;;;8.68;68.79
75013;BME280;63567;49.956;20.130;2023-04-01T02:02:52;95389.91;;;8.70;68.28
75013;BME280;63567;49.956;20.130;2023-04-01T02:05:21;95395.31;;;8.75;68.63
75013;BME280;63567;49.956;20.130;2023-04-01T02:07:55;95395.31;;;8.75;68.22
75013;BME280;63567;49.956;20.130;2023-04-01T02:10:26;95391.69;;;8.76;68.31
75013;BME280;63567;49.956;20.130;2023-04-01T02:12:56;95398.72;;;8.76;68.26
75013;BME280;63567;49.956;20.130;2023-04-01T02:15:24;95404.81;;;8.76;68.54
75013;BME280;63567;49.956;20.130;2023-04-01T02:17:52;95409.59;;;8.79;68.17
75013;BME280;63567;49.956;20.130;2023-04-01T02:20:21;95404.81;;;8.76;68.77
75013;BME280;63567;49.956;20.130;2023-04-01T02:22:50;95408.03;;;8.78;68.45
75013;BME280;63567;49.956;20.130;2023-04-01T02:25:33;95406.41;;;8.77;68.05
75013;BME280;63567;49.956;20.130;2023-04-01T02:28:00;95411.50;;;8.72;68.23
75013;BME280;63567;49.956;20.130;2023-04-01T02:30:29;95407.25;;;8.71;68.32
75013;BME280;63567;49.956;20.130;2023-04-01T02:32:56;95402.47;;;8.68;68.47
75013;BME280;63567;49.956;20.130;2023-04-01T02:35:23;95407.97;;;8.60;68.65
75013;BME280;63567;49.956;20.130;2023-04-01T02:37:50;95395.66;;;8.60;67.87
75013;BME280;63567;49.956;20.130;2023-04-01T02:40:17;95407.38;;;8.58;68.07
75013;BME280;63567;49.956;20.130;2023-04-01T02:42:42;95409.44;;;8.56;68.30
75013;BME280;63567;49.956;20.130;2023-04-01T02:45:09;95412.06;;;8.56;68.05
75013;BME280;63567;49.956;20.130;2023-04-01T02:47:35;95407.38;;;8.58;68.46
75013;BME280;63567;49.956;20.130;2023-04-01T02:50:00;95407.59;;;8.56;68.44
75013;BME280;63567;49.956;20.130;2023-04-01T02:52:27;95404.63;;;8.53;68.44
75013;BME280;63567;49.956;20.130;2023-04-01T02:54:53;95412.09;;;8.49;68.52
75013;BME280;63567;49.956;20.130;2023-04-01T02:57:18;95413.34;;;8.47;68.46
75013;BME280;63567;49.956;20.130;2023-04-01T02:59:45;95411.56;;;8.40;68.35
75013;BME280;63567;49.956;20.130;2023-04-01T03:02:10;95412.00;;;8.37;68.79
75013;BME280;63567;49.956;20.130;2023-04-01T03:04:36;95405.56;;;8.33;69.08
75013;BME280;63567;49.956;20.130;2023-04-01T03:07:01;95411.66;;;8.27;68.81
75013;BME280;63567;49.956;20.130;2023-04-01T03:09:27;95417.34;;;8.24;69.03
75013;BME280;63567;49.956;20.130;2023-04-01T03:11:53;95414.75;;;8.17;69.60
75013;BME280;63567;49.956;20.130;2023-04-01T03:14:19;95419.19;;;8.17;69.66
75013;BME280;63567;49.956;20.130;2023-04-01T03:16:44;95415.81;;;8.10;70.07
75013;BME280;63567;49.956;20.130;2023-04-01T03:19:09;95413.41;;;8.08;70.34
75013;BME280;63567;49.956;20.130;2023-04-01T03:21:35;95409.53;;;8.11;69.80
75013;BME280;63567;49.956;20.130;2023-04-01T03:24:00;95411.56;;;8.09;70.29
75013;BME280;63567;49.956;20.130;2023-04-01T03:26:26;95411.56;;;8.09;70.52
75013;BME280;63567;49.956;20.130;2023-04-01T03:28:54;95417.66;;;8.09;70.58
75013;BME280;63567;49.956;20.130;2023-04-01T03:31:20;95418.44;;;8.10;70.69
75013;BME280;63567;49.956;20.130;2023-04-01T03:33:45;95419.88;;;8.06;70.78
75013;BME280;63567;49.956;20.130;2023-04-01T03:36:11;95420.09;;;8.04;70.92
75013;BME280;63567;49.956;20.130;2023-04-01T03:38:38;95419.44;;;8.09;70.83
75013;BME280;63567;49.956;20.130;2023-04-01T03:41:04;95417.06;;;8.07;71.10
75013;BME280;63567;49.956;20.130;2023-04-01T03:43:29;95418.00;;;8.13;71.28
75013;BME280;63567;49.956;20.130;2023-04-01T03:45:55;95416.78;;;8.15;71.08
75013;BME280;63567;49.956;20.130;2023-04-01T03:48:23;95418.19;;;8.18;70.76
75013;BME280;63567;49.956;20.130;2023-04-01T03:50:48;95423.63;;;8.16;71.30
75013;BME280;63567;49.956;20.130;2023-04-01T03:53:14;95419.00;;;8.18;71.49
75013;BME280;63567;49.956;20.130;2023-04-01T03:55:40;95424.44;;;8.17;71.03
75013;BME280;63567;49.956;20.130;2023-04-01T03:58:06;95425.22;;;8.17;71.38
75013;BME280;63567;49.956;20.130;2023-04-01T04:00:32;95431.06;;;8.19;71.17
75013;BME280;63567;49.956;20.130;2023-04-01T04:02:58;95434.53;;;8.20;71.36
75013;BME280;63567;49.956;20.130;2023-04-01T04:05:25;95434.09;;;8.23;71.10
75013;BME280;63567;49.956;20.130;2023-04-01T04:07:51;95436.91;;;8.21;71.35
75013;BME280;63567;49.956;20.130;2023-04-01T04:10:16;95437.50;;;8.23;71.38
75013;BME280;63567;49.956;20.130;2023-04-01T04:12:42;95441.16;;;8.22;71.68
75013;BME280;63567;49.956;20.130;2023-04-01T04:15:08;95442.75;;;8.23;71.51
75013;BME280;63567;49.956;20.130;2023-04-01T04:17:34;95445.59;;;8.22;71.47
75013;BME280;63567;49.956;20.130;2023-04-01T04:20:00;95443.56;;;8.24;71.46
75013;BME280;63567;49.956;20.130;2023-04-01T04:22:26;95444.78;;;8.21;71.47
75013;BME280;63567;49.956;20.130;2023-04-01T04:24:51;95442.59;;;8.18;71.92
75013;BME280;63567;49.956;20.130;2023-04-01T04:27:17;95442.78;;;8.17;71.96
75013;BME280;63567;49.956;20.130;2023-04-01T04:29:42;95441.78;;;8.18;72.33
75013;BME280;63567;49.956;20.130;2023-04-01T04:32:08;95446.66;;;8.14;72.42
75013;BME280;63567;49.956;20.130;2023-04-01T04:34:33;95439.97;;;8.18;72.41
75013;BME280;63567;49.956;20.130;2023-04-01T04:36:58;95437.75;;;8.15;72.52
75013;BME280;63567;49.956;20.130;2023-04-01T04:39:24;95433.34;;;8.16;72.41
75013;BME280;63567;49.956;20.130;2023-04-01T04:41:49;95438.94;;;8.19;72.04
75013;BME280;63567;49.956;20.130;2023-04-01T04:44:15;95433.09;;;8.24;72.32
75013;BME280;63567;49.956;20.130;2023-04-01T04:46:40;95437.88;;;8.27;71.65
75013;BME280;63567;49.956;20.130;2023-04-01T04:49:06;95430.16;;;8.32;71.57
75013;BME280;63567;49.956;20.130;2023-04-01T04:51:31;95434.63;;;8.32;72.13
75013;BME280;63567;49.956;20.130;2023-04-01T04:53:59;95434.19;;;8.35;71.59
75013;BME280;63567;49.956;20.130;2023-04-01T04:56:25;95439.44;;;8.35;71.68
75013;BME280;63567;49.956;20.130;2023-04-01T04:58:51;95446.31;;;8.36;71.72
75013;BME280;63567;49.956;20.130;2023-04-01T05:01:17;95446.88;;;8.38;71.92
75013;BME280;63567;49.956;20.130;2023-04-01T05:03:42;95441.22;;;8.41;71.86
75013;BME280;63567;49.956;20.130;2023-04-01T05:06:09;95439.59;;;8.47;71.48
75013;BME280;63567;49.956;20.130;2023-04-01T05:08:36;95448.44;;;8.52;71.39
75013;BME280;63567;49.956;20.130;2023-04-01T05:11:02;95436.47;;;8.56;71.63
75013;BME280;63567;49.956;20.130;2023-04-01T05:13:28;95436.84;;;8.60;71.04
75013;BME280;63567;49.956;20.130;2023-04-01T05:15:54;95443.06;;;8.66;70.90
75013;BME280;63567;49.956;20.130;2023-04-01T05:18:20;95435.34;;;8.71;71.22
75013;BME280;63567;49.956;20.130;2023-04-01T05:20:52;95441.13;;;8.79;71.11
75013;BME280;63567;49.956;20.130;2023-04-01T05:23:18;95438.03;;;8.82;70.60
75013;BME280;63567;49.956;20.130;2023-04-01T05:25:46;95445.50;;;8.86;70.24
75013;BME280;63567;49.956;20.130;2023-04-01T05:28:12;95441.06;;;8.86;70.77
75013;BME280;63567;49.956;20.130;2023-04-01T05:30:43;95438.22;;;8.88;70.44
75013;BME280;63567;49.956;20.130;2023-04-01T05:33:09;95447.63;;;8.95;70.53
75013;BME280;63567;49.956;20.130;2023-04-01T05:35:35;95448.72;;;9.06;70.33
75013;BME280;63567;49.956;20.130;2023-04-01T05:38:02;95458.28;;;9.19;70.41
75013;BME280;63567;49.956;20.130;2023-04-01T05:40:28;95443.22;;;9.33;69.80
75013;BME280;63567;49.956;20.130;2023-04-01T05:42:53;95450.72;;;9.29;69.33
75013;BME280;63567;49.956;20.130;2023-04-01T05:45:19;95463.94;;;9.22;69.90
75013;BME280;63567;49.956;20.130;2023-04-01T05:47:44;95452.97;;;9.07;71.27
75013;BME280;63567;49.956;20.130;2023-04-01T05:50:10;95455.88;;;8.99;72.39
75013;BME280;63567;49.956;20.130;2023-04-01T05:52:36;95452.06;;;8.95;73.51
75013;BME280;63567;49.956;20.130;2023-04-01T05:55:02;95445.88;;;8.89;73.82
75013;BME280;63567;49.956;20.130;2023-04-01T05:57:27;95442.22;;;8.90;74.18
75013;BME280;63567;49.956;20.130;2023-04-01T05:59:53;95454.13;;;8.93;74.28
75013;BME280;63567;49.956;20.130;2023-04-01T06:02:18;95451.00;;;9.02;74.30
75013;BME280;63567;49.956;20.130;2023-04-01T06:04:45;95452.25;;;9.18;74.07
75013;BME280;63567;49.956;20.130;2023-04-01T06:07:14;95448.00;;;9.36;73.78
75013;BME280;63567;49.956;20.130;2023-04-01T06:09:40;95448.31;;;9.28;72.91
75013;BME280;63567;49.956;20.130;2023-04-01T06:28:43;95450.91;;;11.02;68.70
75013;BME280;63567;49.956;20.130;2023-04-01T06:53:42;95464.22;;;10.30;67.71
75013;BME280;63567;49.956;20.130;2023-04-01T06:56:15;95464.22;;;10.30;67.78
75013;BME280;63567;49.956;20.130;2023-04-01T06:58:48;95464.47;;;10.40;68.34
75013;BME280;63567;49.956;20.130;2023-04-01T07:01:21;95467.03;;;10.59;67.99
75013;BME280;63567;49.956;20.130;2023-04-01T07:03:51;95461.88;;;10.64;66.69
75013;BME280;63567;49.956;20.130;2023-04-01T07:06:37;95462.22;;;10.67;66.19
75013;BME280;63567;49.956;20.130;2023-04-01T07:09:21;95459.91;;;10.71;67.05
75013;BME280;63567;49.956;20.130;2023-04-01T07:11:48;95459.81;;;10.78;66.83
75013;BME280;63567;49.956;20.130;2023-04-01T07:19:24;95463.84;;;10.92;65.03
75013;BME280;63567;49.956;20.130;2023-04-01T07:21:55;95460.03;;;10.88;65.47
75013;BME280;63567;49.956;20.130;2023-04-01T07:24:27;95462.56;;;10.83;65.03
75013;BME280;63567;49.956;20.130;2023-04-01T07:26:56;95459.81;;;10.66;64.68
75013;BME280;63567;49.956;20.130;2023-04-01T07:29:22;95452.50;;;10.68;65.02
75013;BME280;63567;49.956;20.130;2023-04-01T07:34:24;95460.63;;;10.78;64.40
75013;BME280;63567;49.956;20.130;2023-04-01T07:37:03;95456.72;;;10.81;65.17
75013;BME280;63567;49.956;20.130;2023-04-01T07:57:57;95472.53;;;11.16;64.47
75013;BME280;63567;49.956;20.130;2023-04-01T08:01:04;95473.69;;;10.97;64.63
75013;BME280;63567;49.956;20.130;2023-04-01T08:03:45;95474.03;;;11.00;64.80
75013;BME280;63567;49.956;20.130;2023-04-01T08:15:00;95477.47;;;11.01;63.93
75013;BME280;63567;49.956;20.130;2023-04-01T08:17:52;95481.91;;;10.88;64.90
75013;BME280;63567;49.956;20.130;2023-04-01T08:25:46;95475.06;;;10.76;64.83
75013;BME280;63567;49.956;20.130;2023-04-01T08:28:24;95479.75;;;10.74;64.07
75013;BME280;63567;49.956;20.130;2023-04-01T08:33:26;95488.34;;;10.81;64.12
75013;BME280;63567;49.956;20.130;2023-04-01T08:38:44;95479.75;;;10.74;64.11
75013;BME280;63567;49.956;20.130;2023-04-01T08:44:04;95477.78;;;10.93;63.71
75013;BME280;63567;49.956;20.130;2023-04-01T08:57:49;95469.75;;;11.87;61.11
75013;BME280;63567;49.956;20.130;2023-04-01T09:00:44;95470.69;;;12.21;59.94
75013;BME280;63567;49.956;20.130;2023-04-01T09:06:06;95483.53;;;12.97;58.04
75013;BME280;63567;49.956;20.130;2023-04-01T09:22:22;95476.72;;;12.84;56.60
75013;BME280;63567;49.956;20.130;2023-04-01T09:30:37;95475.13;;;13.56;55.79
75013;BME280;63567;49.956;20.130;2023-04-01T09:36:45;95478.16;;;12.75;56.06
75013;BME280;63567;49.956;20.130;2023-04-01T09:42:14;95478.22;;;12.46;57.95
75013;BME280;63567;49.956;20.130;2023-04-01T09:45:00;95474.28;;;12.49;58.25
75013;BME280;63567;49.956;20.130;2023-04-01T09:48:08;95472.38;;;12.27;58.58
75013;BME280;63567;49.956;20.130;2023-04-01T09:50:39;95470.97;;;12.08;58.41
75013;BME280;63567;49.956;20.130;2023-04-01T10:24:31;95494.03;;;12.12;59.57
75013;BME280;63567;49.956;20.130;2023-04-01T10:27:09;95486.53;;;12.21;59.93
75013;BME280;63567;49.956;20.130;2023-04-01T10:30:05;95487.66;;;12.25;59.19
75013;BME280;63567;49.956;20.130;2023-04-01T10:33:10;95501.72;;;12.31;59.22
75013;BME280;63567;49.956;20.130;2023-04-01T10:44:23;95509.47;;;12.49;58.71
75013;BME280;63567;49.956;20.130;2023-04-01T10:49:47;95508.91;;;12.47;58.54
75013;BME280;63567;49.956;20.130;2023-04-01T10:55:48;95520.22;;;12.31;60.29
75013;BME280;63567;49.956;20.130;2023-04-01T10:58:27;95513.22;;;12.25;59.48
75013;BME280;63567;49.956;20.130;2023-04-01T11:13:27;95520.28;;;12.65;60.16
75013;BME280;63567;49.956;20.130;2023-04-01T11:16:10;95519.38;;;13.44;58.06
75013;BME280;63567;49.956;20.130;2023-04-01T11:19:03;95527.25;;;14.00;55.42
75013;BME280;63567;49.956;20.130;2023-04-01T11:27:18;95500.91;;;16.96;48.98
75013;BME280;63567;49.956;20.130;2023-04-01T11:33:23;95491.94;;;15.98;48.03
75013;BME280;63567;49.956;20.130;2023-04-01T11:35:58;95494.97;;;15.22;49.82
75013;BME280;63567;49.956;20.130;2023-04-01T11:54:59;95507.34;;;15.06;51.49
75013;BME280;63567;49.956;20.130;2023-04-01T11:57:39;95502.75;;;14.96;51.11
75013;BME280;63567;49.956;20.130;2023-04-01T12:09:00;95494.22;;;14.56;50.22
75013;BME280;63567;49.956;20.130;2023-04-01T12:11:47;95495.09;;;14.67;51.61
75013;BME280;63567;49.956;20.130;2023-04-01T12:14:32;95493.63;;;14.54;50.93
75013;BME280;63567;49.956;20.130;2023-04-01T12:17:34;95501.59;;;14.27;51.20
75013;BME280;63567;49.956;20.130;2023-04-01T12:28:47;95511.03;;;13.52;56.54
75013;BME280;63567;49.956;20.130;2023-04-01T12:37:21;95526.13;;;13.73;56.12
75013;BME280;63567;49.956;20.130;2023-04-01T12:46:18;95516.09;;;14.47;53.55
75013;BME280;63567;49.956;20.130;2023-04-01T13:02:01;95523.06;;;14.04;54.99
75013;BME280;63567;49.956;20.130;2023-04-01T13:18:04;95529.44;;;14.79;51.51
75013;BME280;63567;49.956;20.130;2023-04-01T13:20:47;95527.97;;;14.66;52.67
75013;BME280;63567;49.956;20.130;2023-04-01T13:29:11;95537.22;;;13.92;56.67
75013;BME280;63567;49.956;20.130;2023-04-01T13:32:06;95545.59;;;13.62;58.17
75013;BME280;63567;49.956;20.130;2023-04-01T13:40:58;95553.03;;;13.65;57.77
75013;BME280;63567;49.956;20.130;2023-04-01T13:43:22;95540.75;;;13.59;56.83
75013;BME280;63567;49.956;20.130;2023-04-01T13:50:57;95558.25;;;12.76;61.70
75013;BME280;63567;49.956;20.130;2023-04-01T13:56:20;95564.03;;;13.06;61.54
75013;BME280;63567;49.956;20.130;2023-04-01T13:59:27;95559.31;;;13.08;61.65
75013;BME280;63567;49.956;20.130;2023-04-01T14:07:54;95572.59;;;12.97;59.60
75013;BME280;63567;49.956;20.130;2023-04-01T14:13:08;95572.13;;;13.00;60.90
75013;BME280;63567;49.956;20.130;2023-04-01T14:15:42;95569.31;;;12.89;61.80
75013;BME280;63567;49.956;20.130;2023-04-01T14:24:03;95550.78;;;12.56;65.15
75013;BME280;63567;49.956;20.130;2023-04-01T14:32:06;95557.13;;;12.71;63.92
75013;BME280;63567;49.956;20.130;2023-04-01T14:37:15;95562.59;;;12.53;63.24
75013;BME280;63567;49.956;20.130;2023-04-01T14:40:14;95562.09;;;12.39;63.07
75013;BME280;63567;49.956;20.130;2023-04-01T14:42:45;95568.31;;;12.33;63.61
75013;BME280;63567;49.956;20.130;2023-04-01T14:46:12;95562.22;;;12.04;63.88
75013;BME280;63567;49.956;20.130;2023-04-01T14:51:16;95562.56;;;11.84;65.04
75013;BME280;63567;49.956;20.130;2023-04-01T14:53:53;95570.97;;;11.69;65.19
75013;BME280;63567;49.956;20.130;2023-04-01T14:56:43;95569.81;;;11.53;65.46
75013;BME280;63567;49.956;20.130;2023-04-01T14:59:14;95560.88;;;11.42;65.95
75013;BME280;63567;49.956;20.130;2023-04-01T15:04:54;95564.69;;;11.35;67.15
75013;BME280;63567;49.956;20.130;2023-04-01T15:16:17;95568.00;;;11.42;67.28
75013;BME280;63567;49.956;20.130;2023-04-01T15:24:26;95574.88;;;11.55;67.67
75013;BME280;63567;49.956;20.130;2023-04-01T15:27:25;95566.97;;;11.55;67.71
75013;BME280;63567;49.956;20.130;2023-04-01T15:30:17;95577.63;;;11.60;67.81
75013;BME280;63567;49.956;20.130;2023-04-01T15:32:51;95587.72;;;11.51;67.50
75013;BME280;63567;49.956;20.130;2023-04-01T15:37:55;95582.91;;;11.48;67.81
75013;BME280;63567;49.956;20.130;2023-04-01T15:54:32;95621.75;;;11.29;66.84
75013;BME280;63567;49.956;20.130;2023-04-01T16:03:12;95632.75;;;11.26;67.17
75013;BME280;63567;49.956;20.130;2023-04-01T16:22:32;95644.03;;;10.91;69.34
75013;BME280;63567;49.956;20.130;2023-04-01T16:28:22;95655.47;;;10.85;69.58
75013;BME280;63567;49.956;20.130;2023-04-01T16:31:08;95657.72;;;10.81;69.63
75013;BME280;63567;49.956;20.130;2023-04-01T16:33:46;95660.56;;;10.80;69.95
75013;BME280;63567;49.956;20.130;2023-04-01T16:36:28;95665.72;;;10.75;69.96
75013;BME280;63567;49.956;20.130;2023-04-01T16:44:46;95669.03;;;10.52;72.34
75013;BME280;63567;49.956;20.130;2023-04-01T16:47:17;95676.81;;;10.46;73.04
75013;BME280;63567;49.956;20.130;2023-04-01T16:50:05;95683.19;;;10.39;73.54
75013;BME280;63567;49.956;20.130;2023-04-01T16:55:21;95683.69;;;10.29;73.89
75013;BME280;63567;49.956;20.130;2023-04-01T16:57:52;95684.78;;;10.21;74.78
75013;BME280;63567;49.956;20.130;2023-04-01T17:00:41;95693.59;;;10.08;75.26
75013;BME280;63567;49.956;20.130;2023-04-01T17:03:13;95697.38;;;9.94;76.08
75013;BME280;63567;49.956;20.130;2023-04-01T17:21:34;95709.66;;;9.25;77.71
75013;BME280;63567;49.956;20.130;2023-04-01T17:24:27;95714.38;;;9.16;77.95
75013;BME280;63567;49.956;20.130;2023-04-01T17:49:39;95740.53;;;8.59;81.01
75013;BME280;63567;49.956;20.130;2023-04-01T17:52:32;95753.66;;;8.59;80.90
75013;BME280;63567;49.956;20.130;2023-04-01T17:58:02;95750.25;;;8.52;80.61
75013;BME280;63567;49.956;20.130;2023-04-01T18:00:56;95751.06;;;8.46;80.50
75013;BME280;63567;49.956;20.130;2023-04-01T18:06:14;95756.09;;;8.48;80.26
75013;BME280;63567;49.956;20.130;2023-04-01T18:11:50;95761.56;;;8.46;80.04
75013;BME280;63567;49.956;20.130;2023-04-01T18:14:41;95763.38;;;8.46;80.63
75013;BME280;63567;49.956;20.130;2023-04-01T18:17:39;95766.41;;;8.42;80.45
75013;BME280;63567;49.956;20.130;2023-04-01T18:25:38;95773.25;;;8.43;80.92
75013;BME280;63567;49.956;20.130;2023-04-01T18:28:17;95782.56;;;8.46;80.99
75013;BME280;63567;49.956;20.130;2023-04-01T18:30:54;95783.56;;;8.45;81.32
75013;BME280;63567;49.956;20.130;2023-04-01T18:33:44;95783.75;;;8.43;80.98
75013;BME280;63567;49.956;20.130;2023-04-01T18:39:34;95787.81;;;8.46;80.73
75013;BME280;63567;49.956;20.130;2023-04-01T18:42:57;95786.81;;;8.40;80.95
75013;BME280;63567;49.956;20.130;2023-04-01T18:45:45;95787.19;;;8.37;81.87
75013;BME280;63567;49.956;20.130;2023-04-01T18:48:37;95791.63;;;8.37;82.24
75013;BME280;63567;49.956;20.130;2023-04-01T18:51:23;95797.69;;;8.37;82.22
75013;BME280;63567;49.956;20.130;2023-04-01T18:53:58;95799.72;;;8.35;82.46
75013;BME280;63567;49.956;20.130;2023-04-01T18:56:38;95802.34;;;8.35;82.32
75013;BME280;63567;49.956;20.130;2023-04-01T18:59:22;95793.06;;;8.33;82.67
75013;BME280;63567;49.956;20.130;2023-04-01T19:07:48;95808.78;;;8.19;83.74
75013;BME280;63567;49.956;20.130;2023-04-01T19:13:19;95816.88;;;8.18;83.69
75013;BME280;63567;49.956;20.130;2023-04-01T19:21:35;95822.94;;;8.12;84.38
75013;BME280;63567;49.956;20.130;2023-04-01T19:32:08;95833.22;;;8.07;85.40
75013;BME280;63567;49.956;20.130;2023-04-01T19:37:37;95836.84;;;8.06;85.11
75013;BME280;63567;49.956;20.130;2023-04-01T19:43:07;95852.00;;;8.03;85.91
75013;BME280;63567;49.956;20.130;2023-04-01T19:48:44;95848.75;;;8.01;86.16
75013;BME280;63567;49.956;20.130;2023-04-01T19:56:43;95864.69;;;8.00;86.58
75013;BME280;63567;49.956;20.130;2023-04-01T19:59:20;95860.88;;;7.96;87.24
75013;BME280;63567;49.956;20.130;2023-04-01T20:04:19;95867.09;;;7.95;87.29
75013;BME280;63567;49.956;20.130;2023-04-01T20:12:27;95879.81;;;7.98;87.72
75013;BME280;63567;49.956;20.130;2023-04-01T20:14:58;95881.44;;;7.99;87.43
75013;BME280;63567;49.956;20.130;2023-04-01T20:22:38;95884.47;;;8.02;87.11
75013;BME280;63567;49.956;20.130;2023-04-01T20:25:24;95886.50;;;8.07;86.88
75013;BME280;63567;49.956;20.130;2023-04-01T20:31:40;95896.38;;;8.12;86.77
75013;BME280;63567;49.956;20.130;2023-04-01T20:44:04;95900.81;;;8.05;87.89
75013;BME280;63567;49.956;20.130;2023-04-01T20:49:50;95899.38;;;8.02;88.25
75013;BME280;63567;49.956;20.130;2023-04-01T20:52:32;95901.41;;;8.00;88.53
75013;BME280;63567;49.956;20.130;2023-04-01T21:03:33;95906.63;;;7.93;88.79
75013;BME280;63567;49.956;20.130;2023-04-01T21:09:06;95918.75;;;7.88;89.59
75013;BME280;63567;49.956;20.130;2023-04-01T21:12:13;95916.94;;;7.88;89.90
75013;BME280;63567;49.956;20.130;2023-04-01T21:31:18;95935.25;;;7.75;91.27
75013;BME280;63567;49.956;20.130;2023-04-01T21:50:55;95943.94;;;7.82;90.63
75013;BME280;63567;49.956;20.130;2023-04-01T21:56:29;95948.16;;;7.76;90.57
75013;BME280;63567;49.956;20.130;2023-04-01T22:04:45;95953.34;;;7.70;91.11
75013;BME280;63567;49.956;20.130;2023-04-01T22:07:20;95950.38;;;7.73;90.84
75013;BME280;63567;49.956;20.130;2023-04-01T22:09:58;95950.97;;;7.75;91.25
75013;BME280;63567;49.956;20.130;2023-04-01T22:25:43;95961.69;;;7.87;90.51
75013;BME280;63567;49.956;20.130;2023-04-01T22:28:21;95963.50;;;7.86;90.11
75013;BME280;63567;49.956;20.130;2023-04-01T22:30:59;95965.13;;;7.87;90.44
75013;BME280;63567;49.956;20.130;2023-04-01T22:39:26;95967.75;;;7.87;89.97
75013;BME280;63567;49.956;20.130;2023-04-01T22:50:04;95973.41;;;7.91;89.79
75013;BME280;63567;49.956;20.130;2023-04-01T22:52:39;95981.88;;;7.93;89.62
75013;BME280;63567;49.956;20.130;2023-04-01T22:55:30;95981.50;;;7.96;89.68
75013;BME280;63567;49.956;20.130;2023-04-01T22:58:08;95979.06;;;7.94;89.53
75013;BME280;63567;49.956;20.130;2023-04-01T23:00:40;95983.69;;;7.92;89.86
75013;BME280;63567;49.956;20.130;2023-04-01T23:03:16;95983.50;;;7.94;89.59
75013;BME280;63567;49.956;20.130;2023-04-01T23:05:53;95981.06;;;7.92;89.68
75013;BME280;63567;49.956;20.130;2023-04-01T23:11:16;95989.75;;;7.93;89.58
75013;BME280;63567;49.956;20.130;2023-04-01T23:14:38;95982.91;;;7.92;89.98
75013;BME280;63567;49.956;20.130;2023-04-01T23:16:51;95994.38;;;7.91;89.98
75013;BME280;63567;49.956;20.130;2023-04-01T23:19:29;95994.63;;;7.96;89.78
75013;BME280;63567;49.956;20.130;2023-04-01T23:24:29;95986.75;;;7.96;89.94
75013;BME280;63567;49.956;20.130;2023-04-01T23:27:00;95990.16;;;7.96;89.93
75013;BME280;63567;49.956;20.130;2023-04-01T23:29:27;95996.03;;;7.98;89.77
75013;BME280;63567;49.956;20.130;2023-04-01T23:32:01;95995.00;;;7.99;89.76
75013;BME280;63567;49.956;20.130;2023-04-01T23:34:34;95995.63;;;8.01;89.25
75013;BME280;63567;49.956;20.130;2023-04-01T23:37:05;95997.44;;;8.01;89.59
75013;BME280;63567;49.956;20.130;2023-04-01T23:39:35;95991.59;;;8.06;89.81
75013;BME280;63567;49.956;20.130;2023-04-01T23:44:31;96005.94;;;8.10;88.90